createdAt,value
2023-03-06T00:01:02.305Z,11.77
2023-03-06T00:03:29.159Z,12.25
2023-03-06T00:05:58.628Z,8.80
2023-03-06T00:08:26.919Z,14.10
2023-03-06T00:10:54.715Z,11.52
2023-03-06T00:13:21.716Z,10.47
2023-03-06T00:15:49.307Z,13.25
2023-03-06T00:18:16.298Z,12.73
2023-03-06T00:20:44.531Z,16.08
2023-03-06T00:23:12.503Z,11.27
2023-03-06T00:25:43.496Z,11.53
2023-03-06T00:28:12.162Z,13.80
2023-03-06T00:30:39.149Z,13.18
2023-03-06T00:33:06.185Z,14.05
2023-03-06T00:35:33.068Z,13.02
2023-03-06T00:37:59.977Z,13.37
2023-03-06T00:40:27.233Z,13.65
2023-03-06T00:42:54.026Z,13.55
2023-03-06T00:45:20.952Z,13.43
2023-03-06T00:47:47.748Z,12.68
2023-03-06T00:50:14.939Z,15.47
2023-03-06T00:52:42.133Z,11.73
2023-03-06T00:55:09.836Z,14.38
2023-03-06T00:57:36.749Z,16.00
2023-03-06T01:00:05.465Z,12.13
2023-03-06T01:02:35.503Z,12.93
2023-03-06T01:05:02.798Z,15.55
2023-03-06T01:07:33.996Z,13.35
2023-03-06T01:10:00.899Z,14.93
2023-03-06T01:12:27.769Z,16.85
2023-03-06T01:14:54.547Z,16.73
2023-03-06T01:17:21.338Z,13.32
2023-03-06T01:19:48.134Z,13.05
2023-03-06T01:22:14.993Z,15.30
2023-03-06T01:24:41.785Z,17.45
2023-03-06T01:27:08.744Z,15.50
2023-03-06T01:29:35.615Z,15.57
2023-03-06T01:32:02.614Z,13.55
2023-03-06T01:34:29.515Z,12.80
2023-03-06T01:36:56.338Z,14.23
2023-03-06T01:39:23.287Z,14.03
2023-03-06T01:41:50.306Z,12.57
2023-03-06T01:44:17.112Z,12.10
2023-03-06T01:46:45.370Z,11.52
2023-03-06T01:49:25.217Z,12.80
2023-03-06T01:52:03.586Z,13.73
2023-03-06T01:54:40.612Z,11.60
2023-03-06T01:57:12.598Z,13.25
2023-03-06T01:59:41.336Z,10.30
2023-03-06T02:02:10.626Z,12.93
2023-03-06T02:04:40.052Z,10.40
2023-03-06T02:07:08.242Z,13.65
2023-03-06T02:09:36.861Z,11.32
2023-03-06T02:12:08.730Z,14.05
2023-03-06T02:14:36.026Z,12.30
2023-03-06T02:17:03.963Z,13.80
2023-03-06T02:19:49.362Z,12.32
2023-03-06T02:22:18.926Z,12.23
2023-03-06T02:24:56.438Z,11.38
2023-03-06T02:27:25.065Z,12.45
2023-03-06T02:29:54.868Z,13.00
2023-03-06T02:32:21.987Z,12.55
2023-03-06T02:34:53.818Z,14.18
2023-03-06T02:37:22.132Z,12.27
2023-03-06T02:39:55.277Z,13.35
2023-03-06T02:42:25.826Z,12.03
2023-03-06T02:44:55.039Z,14.35
2023-03-06T02:47:22.235Z,13.95
2023-03-06T02:49:49.607Z,12.27
2023-03-06T02:52:17.923Z,15.80
2023-03-06T02:54:44.928Z,18.53
2023-03-06T02:57:12.372Z,14.32
2023-03-06T02:59:39.580Z,14.85
2023-03-06T03:02:06.915Z,13.00
2023-03-06T03:04:34.748Z,13.55
2023-03-06T03:07:02.666Z,12.10
2023-03-06T03:09:36.710Z,16.17
2023-03-06T03:12:06.460Z,12.57
2023-03-06T03:14:33.746Z,11.43
2023-03-06T03:17:01.786Z,12.90
2023-03-06T03:19:28.684Z,12.40
2023-03-06T03:21:55.875Z,13.93
2023-03-06T03:24:24.020Z,12.02
2023-03-06T03:26:50.890Z,11.80
2023-03-06T03:29:19.641Z,15.23
2023-03-06T03:31:47.973Z,16.80
2023-03-06T03:34:15.081Z,11.00
2023-03-06T03:36:42.646Z,12.98
2023-03-06T03:39:11.362Z,13.55
2023-03-06T03:41:38.806Z,11.30
2023-03-06T03:44:08.026Z,10.93
2023-03-06T03:46:35.244Z,12.63
2023-03-06T03:49:04.296Z,10.93
2023-03-06T03:51:32.128Z,13.07
2023-03-06T03:53:59.838Z,9.32
2023-03-06T03:56:30.693Z,10.30
2023-03-06T03:59:06.613Z,16.65
2023-03-06T04:01:39.981Z,11.75
2023-03-06T04:04:07.860Z,12.35
2023-03-06T04:06:35.020Z,12.50
2023-03-06T04:09:04.504Z,9.20
2023-03-06T04:11:31.940Z,10.90
2023-03-06T04:13:59.195Z,11.68
2023-03-06T04:16:26.287Z,11.20
2023-03-06T04:18:53.205Z,10.95
2023-03-06T04:21:20.805Z,10.60
2023-03-06T04:23:47.782Z,11.60
2023-03-06T04:26:14.943Z,9.60
2023-03-06T04:28:41.793Z,10.98
2023-03-06T04:31:08.973Z,11.70
2023-03-06T04:33:36.650Z,9.63
2023-03-06T04:36:03.706Z,9.90
2023-03-06T04:38:32.806Z,8.85
2023-03-06T04:41:01.613Z,13.95
2023-03-06T04:43:28.626Z,8.27
2023-03-06T04:45:55.402Z,8.03
2023-03-06T04:48:22.231Z,9.20
2023-03-06T04:50:49.010Z,7.53
2023-03-06T04:53:16.960Z,9.45
2023-03-06T04:55:45.990Z,9.63
2023-03-06T04:58:14.280Z,8.33
2023-03-06T05:00:41.244Z,12.65
2023-03-06T05:03:09.274Z,9.00
2023-03-06T05:05:36.061Z,9.98
2023-03-06T05:08:02.885Z,9.50
2023-03-06T05:10:29.715Z,9.97
2023-03-06T05:12:56.500Z,9.63
2023-03-06T05:15:23.359Z,6.97
2023-03-06T05:17:50.295Z,7.43
2023-03-06T05:20:17.441Z,9.63
2023-03-06T05:22:44.648Z,6.67
2023-03-06T05:25:12.059Z,8.73
2023-03-06T05:27:39.227Z,6.35
2023-03-06T05:30:06.995Z,7.70
2023-03-06T05:32:35.569Z,5.75
2023-03-06T05:35:03.097Z,7.60
2023-03-06T05:37:30.183Z,7.28
2023-03-06T05:39:57.173Z,7.18
2023-03-06T05:42:24.047Z,9.23
2023-03-06T05:44:50.996Z,7.72
2023-03-06T05:47:17.792Z,7.50
2023-03-06T05:49:44.637Z,9.02
2023-03-06T05:52:13.240Z,11.55
2023-03-06T05:54:40.049Z,9.50
2023-03-06T05:57:06.965Z,10.05
2023-03-06T05:59:33.990Z,9.87
2023-03-06T06:02:01.304Z,7.97
2023-03-06T06:04:28.622Z,7.97
2023-03-06T06:06:58.190Z,9.73
2023-03-06T06:09:25.726Z,9.18
2023-03-06T06:11:59.169Z,10.53
2023-03-06T06:14:26.264Z,10.43
2023-03-06T06:16:53.184Z,8.38
2023-03-06T06:19:20.583Z,9.57
2023-03-06T06:21:52.794Z,11.05
2023-03-06T06:24:22.710Z,9.30
2023-03-06T06:26:57.759Z,9.10
2023-03-06T06:29:25.794Z,9.07
2023-03-06T06:31:53.411Z,13.43
2023-03-06T06:34:21.360Z,10.35
2023-03-06T06:36:51.056Z,9.73
2023-03-06T06:39:21.572Z,8.40
2023-03-06T06:42:05.571Z,9.70
2023-03-06T06:44:37.804Z,9.10
2023-03-06T06:47:24.062Z,9.90
2023-03-06T06:49:53.348Z,10.47
2023-03-06T06:52:20.343Z,9.65
2023-03-06T06:54:47.321Z,8.95
2023-03-06T06:57:14.821Z,11.88
2023-03-06T06:59:41.851Z,10.15
2023-03-06T07:02:14.178Z,10.57
2023-03-06T07:04:56.214Z,11.25
2023-03-06T07:07:27.524Z,9.23
2023-03-06T07:09:55.618Z,9.68
2023-03-06T07:12:22.504Z,10.65
2023-03-06T07:14:49.233Z,8.17
2023-03-06T07:17:16.081Z,7.70
2023-03-06T07:19:43.032Z,10.52
2023-03-06T07:22:10.143Z,8.98
2023-03-06T07:24:36.898Z,7.20
2023-03-06T07:27:03.769Z,9.30
2023-03-06T07:29:32.937Z,8.02
2023-03-06T07:32:00.045Z,9.95
2023-03-06T07:34:26.915Z,8.65
2023-03-06T07:36:54.110Z,8.40
2023-03-06T07:39:20.852Z,7.83
2023-03-06T07:41:47.703Z,11.75
2023-03-06T07:44:14.510Z,7.72
2023-03-06T07:46:41.664Z,5.53
2023-03-06T07:49:08.506Z,6.50
2023-03-06T07:51:35.430Z,5.90
2023-03-06T07:54:02.317Z,7.10
2023-03-06T07:56:29.342Z,6.53
2023-03-06T07:58:57.095Z,7.80
2023-03-06T08:01:24.289Z,5.50
2023-03-06T08:03:51.946Z,6.10
2023-03-06T08:06:24.557Z,7.97
2023-03-06T08:08:53.293Z,5.50
2023-03-06T08:11:22.482Z,4.05
2023-03-06T08:13:49.824Z,6.00
2023-03-06T08:16:17.623Z,4.80
2023-03-06T08:18:46.315Z,7.88
2023-03-06T08:21:15.932Z,5.32
2023-03-06T08:23:43.321Z,4.47
2023-03-06T08:26:16.005Z,4.05
2023-03-06T08:28:43.519Z,5.27
2023-03-06T08:31:31.400Z,3.83
2023-03-06T08:34:00.202Z,5.35
2023-03-06T08:36:27.634Z,4.75
2023-03-06T08:38:54.395Z,6.30
2023-03-06T08:41:21.861Z,2.50
2023-03-06T08:43:50.031Z,2.85
2023-03-06T08:46:18.789Z,4.50
2023-03-06T08:48:47.822Z,4.40
2023-03-06T08:51:15.308Z,4.20
2023-03-06T08:53:44.017Z,4.30
2023-03-06T08:56:18.437Z,5.75
2023-03-06T08:58:45.852Z,3.17
2023-03-06T09:01:17.753Z,4.15
2023-03-06T09:03:44.785Z,4.63
2023-03-06T09:06:12.168Z,2.73
2023-03-06T09:08:43.063Z,2.53
2023-03-06T09:11:12.873Z,3.15
2023-03-06T09:13:39.870Z,2.63
2023-03-06T09:16:08.400Z,4.38
2023-03-06T09:18:35.857Z,2.83
2023-03-06T09:21:04.168Z,5.10
2023-03-06T09:23:31.388Z,4.70
2023-03-06T09:25:59.925Z,1.90
2023-03-06T09:28:26.872Z,4.95
2023-03-06T09:30:53.872Z,3.07
2023-03-06T09:33:21.595Z,4.45
2023-03-06T09:35:54.981Z,4.78
2023-03-06T09:38:25.308Z,2.88
2023-03-06T09:40:55.260Z,4.75
2023-03-06T09:43:32.819Z,2.20
2023-03-06T09:46:00.268Z,4.45
2023-03-06T09:48:46.405Z,1.65
2023-03-06T09:51:16.956Z,4.00
2023-03-06T09:53:55.924Z,2.40
2023-03-06T09:56:30.965Z,2.70
2023-03-06T09:59:17.540Z,1.92
2023-03-06T10:01:54.275Z,2.75
2023-03-06T10:04:39.368Z,2.55
2023-03-06T10:07:18.815Z,3.53
2023-03-06T10:09:59.894Z,3.17
2023-03-06T10:12:37.918Z,3.53
2023-03-06T10:15:23.084Z,2.15
2023-03-06T10:17:50.267Z,3.03
2023-03-06T10:20:22.200Z,3.97
2023-03-06T10:23:05.369Z,3.00
2023-03-06T10:25:55.720Z,3.13
2023-03-06T10:28:57.908Z,3.30
2023-03-06T10:31:27.049Z,2.08
2023-03-06T10:33:54.229Z,2.25
2023-03-06T10:36:29.848Z,3.17
2023-03-06T10:38:58.389Z,4.20
2023-03-06T10:41:29.467Z,4.55
2023-03-06T10:44:05.383Z,3.22
2023-03-06T10:46:37.049Z,1.77
2023-03-06T10:49:27.611Z,2.07
2023-03-06T10:52:04.012Z,2.65
2023-03-06T10:54:36.541Z,2.78
2023-03-06T10:57:20.766Z,4.05
2023-03-06T10:59:54.096Z,2.55
2023-03-06T11:02:31.622Z,5.20
2023-03-06T11:05:00.846Z,3.72
2023-03-06T11:07:32.466Z,2.28
2023-03-06T11:09:59.213Z,2.92
2023-03-06T11:12:30.872Z,1.70
2023-03-06T11:15:06.971Z,2.53
2023-03-06T11:17:36.603Z,4.28
2023-03-06T11:20:18.310Z,4.18
2023-03-06T11:23:01.816Z,3.00
2023-03-06T11:25:37.355Z,4.80
2023-03-06T11:28:12.641Z,6.67
2023-03-06T11:30:47.392Z,6.47
2023-03-06T11:33:43.579Z,5.20
2023-03-06T11:36:18.530Z,4.88
2023-03-06T11:38:51.471Z,6.35
2023-03-06T11:41:49.773Z,5.17
2023-03-06T11:44:24.712Z,4.68
2023-03-06T11:47:03.028Z,4.32
2023-03-06T11:49:38.028Z,6.20
2023-03-06T11:52:17.442Z,3.72
2023-03-06T11:54:49.240Z,4.30
2023-03-06T11:57:20.450Z,6.85
2023-03-06T12:00:21.265Z,5.00
2023-03-06T12:03:14.332Z,6.38
2023-03-06T12:06:01.512Z,7.55
2023-03-06T12:08:55.116Z,8.87
2023-03-06T12:11:35.605Z,10.48
2023-03-06T12:14:33.408Z,7.45
2023-03-06T12:17:07.807Z,6.18
2023-03-06T12:20:10.339Z,9.43
2023-03-06T12:22:57.732Z,6.90
2023-03-06T12:25:50.254Z,7.15
2023-03-06T12:28:36.079Z,7.65
2023-03-06T12:31:40.905Z,8.65
2023-03-06T12:34:15.654Z,6.95
2023-03-06T12:36:57.240Z,9.13
2023-03-06T12:39:48.612Z,11.48
2023-03-06T12:42:23.871Z,11.15
2023-03-06T12:45:10.861Z,9.95
2023-03-06T12:47:49.431Z,13.43
2023-03-06T12:50:28.912Z,9.10
2023-03-06T12:53:00.668Z,6.60
2023-03-06T12:55:27.908Z,11.15
2023-03-06T12:57:55.033Z,11.57
2023-03-06T13:00:34.315Z,9.80
2023-03-06T13:03:39.370Z,11.57
2023-03-06T13:06:32.420Z,11.15
2023-03-06T13:09:30.282Z,12.10
2023-03-06T13:12:24.255Z,16.75
2023-03-06T13:14:55.251Z,9.40
2023-03-06T13:17:27.933Z,11.03
2023-03-06T13:20:35.522Z,8.57
2023-03-06T13:23:30.067Z,9.48
2023-03-06T13:26:02.125Z,6.97
2023-03-06T13:28:50.352Z,8.98
2023-03-06T13:31:34.148Z,7.90
2023-03-06T13:34:05.738Z,6.20
2023-03-06T13:36:34.547Z,11.20
2023-03-06T13:39:09.613Z,7.30
2023-03-06T13:41:56.659Z,6.55
2023-03-06T13:44:27.293Z,6.70
2023-03-06T13:47:01.000Z,8.60
2023-03-06T13:49:28.629Z,7.45
2023-03-06T13:51:55.357Z,7.00
2023-03-06T13:54:48.103Z,6.45
2023-03-06T13:57:49.926Z,8.83
2023-03-06T14:00:17.157Z,9.02
2023-03-06T14:03:05.708Z,15.10
2023-03-06T14:05:46.820Z,12.18
2023-03-06T14:08:16.938Z,8.15
2023-03-06T14:10:45.941Z,8.23
2023-03-06T14:13:30.027Z,11.10
2023-03-06T14:15:59.252Z,7.60
2023-03-06T14:18:33.921Z,5.18
2023-03-06T14:21:03.017Z,6.22
2023-03-06T14:23:42.617Z,6.93
2023-03-06T14:26:19.645Z,8.00
2023-03-06T14:28:52.264Z,10.68
2023-03-06T14:31:22.699Z,8.05
2023-03-06T14:33:58.563Z,7.63
2023-03-06T14:36:42.343Z,9.43
2023-03-06T14:39:33.292Z,7.68
2023-03-06T14:42:16.255Z,6.07
2023-03-06T14:44:43.571Z,6.38
2023-03-06T14:47:33.293Z,7.90
2023-03-06T14:50:28.288Z,5.90
2023-03-06T14:53:19.158Z,5.88
2023-03-06T14:55:58.108Z,5.07
2023-03-06T14:58:36.721Z,7.25
2023-03-06T15:01:15.250Z,5.90
2023-03-06T15:03:50.265Z,9.07
2023-03-06T15:06:22.269Z,5.68
2023-03-06T15:09:02.700Z,6.10
2023-03-06T15:11:55.931Z,9.82
2023-03-06T15:14:36.893Z,8.75
2023-03-06T15:17:23.702Z,7.63
2023-03-06T15:19:54.553Z,8.98
2023-03-06T15:22:32.363Z,10.93
2023-03-06T15:25:20.599Z,8.48
2023-03-06T15:27:53.109Z,13.23
2023-03-06T15:30:36.700Z,11.60
2023-03-06T15:33:26.487Z,13.00
2023-03-06T15:36:18.227Z,12.85
2023-03-06T15:38:47.586Z,15.18
2023-03-06T15:41:30.334Z,13.88
2023-03-06T15:43:58.634Z,16.80
2023-03-06T15:46:25.697Z,17.20
2023-03-06T15:49:04.831Z,17.58
2023-03-06T15:51:32.679Z,16.55
2023-03-06T15:54:11.146Z,16.80
2023-03-06T15:56:44.279Z,18.00
2023-03-06T15:59:20.545Z,20.52
2023-03-06T16:01:48.088Z,17.42
2023-03-06T16:04:19.524Z,17.67
2023-03-06T16:06:46.869Z,21.55
2023-03-06T16:09:14.061Z,18.33
2023-03-06T16:11:47.053Z,21.40
2023-03-06T16:14:23.725Z,19.45
2023-03-06T16:16:52.276Z,20.10
2023-03-06T16:19:26.884Z,21.00
2023-03-06T16:21:55.641Z,20.00
2023-03-06T16:24:22.648Z,17.45
2023-03-06T16:26:51.667Z,20.55
2023-03-06T16:29:20.714Z,19.05
2023-03-06T16:31:47.863Z,20.13
2023-03-06T16:34:15.365Z,21.57
2023-03-06T16:36:42.644Z,16.63
2023-03-06T16:39:14.773Z,18.10
2023-03-06T16:41:42.020Z,18.25
2023-03-06T16:44:10.196Z,17.60
2023-03-06T16:46:42.600Z,18.00
2023-03-06T16:49:20.042Z,15.65
2023-03-06T16:51:47.214Z,15.65
2023-03-06T16:54:14.471Z,16.20
2023-03-06T16:56:41.943Z,14.80
2023-03-06T16:59:09.884Z,14.07
2023-03-06T17:01:37.227Z,14.77
2023-03-06T17:04:04.348Z,15.00
2023-03-06T17:06:31.510Z,13.73
2023-03-06T17:08:59.763Z,12.52
2023-03-06T17:11:27.067Z,17.53
2023-03-06T17:13:55.390Z,17.73
2023-03-06T17:16:22.619Z,18.33
2023-03-06T17:18:49.938Z,17.90
2023-03-06T17:21:16.975Z,16.88
2023-03-06T17:23:44.590Z,18.27
2023-03-06T17:26:13.659Z,18.00
2023-03-06T17:28:41.498Z,18.27
2023-03-06T17:31:23.854Z,17.95
2023-03-06T17:34:00.753Z,16.80
2023-03-06T17:36:29.723Z,16.73
2023-03-06T17:38:58.522Z,20.00
2023-03-06T17:41:26.028Z,17.98
2023-03-06T17:43:55.442Z,20.38
2023-03-06T17:46:22.441Z,17.80
2023-03-06T17:48:49.405Z,20.80
2023-03-06T17:51:16.592Z,18.02
2023-03-06T17:53:43.572Z,21.42
2023-03-06T17:56:12.854Z,20.80
2023-03-06T17:58:39.635Z,20.25
2023-03-06T18:01:15.576Z,19.87
2023-03-06T18:03:48.125Z,20.77
2023-03-06T18:06:16.277Z,18.33
2023-03-06T18:08:43.649Z,19.95
2023-03-06T18:11:11.634Z,19.95
2023-03-06T18:13:40.933Z,20.40
2023-03-06T18:16:08.870Z,22.95
2023-03-06T18:18:35.774Z,19.70
2023-03-06T18:21:07.502Z,22.42
2023-03-06T18:23:35.936Z,22.25
2023-03-06T18:26:12.455Z,21.37
2023-03-06T18:28:42.553Z,21.35
2023-03-06T18:31:24.584Z,19.38
2023-03-06T18:33:56.757Z,19.05
2023-03-06T18:36:25.626Z,26.85
2023-03-06T18:38:52.991Z,24.47
2023-03-06T18:41:21.605Z,24.27
2023-03-06T18:43:56.656Z,22.52
2023-03-06T18:46:24.989Z,21.45
2023-03-06T18:48:52.395Z,24.00
2023-03-06T18:51:20.141Z,26.00
2023-03-06T18:53:47.162Z,22.15
2023-03-06T18:56:19.936Z,21.30
2023-03-06T18:58:47.086Z,25.92
2023-03-06T19:01:14.789Z,27.42
2023-03-06T19:03:41.620Z,27.17
2023-03-06T19:06:13.669Z,23.92
2023-03-06T19:08:40.844Z,21.40
2023-03-06T19:11:09.937Z,24.80
2023-03-06T19:13:37.592Z,25.83
2023-03-06T19:16:05.441Z,22.47
2023-03-06T19:18:32.787Z,22.48
2023-03-06T19:21:14.646Z,28.35
2023-03-06T19:23:42.282Z,26.67
2023-03-06T19:26:09.859Z,25.30
2023-03-06T19:28:39.430Z,27.57
2023-03-06T19:31:14.724Z,25.52
2023-03-06T19:33:43.037Z,23.85
2023-03-06T19:36:12.188Z,26.80
2023-03-06T19:38:39.115Z,28.92
2023-03-06T19:41:06.287Z,25.90
2023-03-06T19:43:33.098Z,24.02
2023-03-06T19:46:01.026Z,25.98
2023-03-06T19:48:27.940Z,30.35
2023-03-06T19:50:55.006Z,27.30
2023-03-06T19:53:23.133Z,30.87
2023-03-06T19:55:50.004Z,26.17
2023-03-06T19:58:16.929Z,26.02
2023-03-06T20:00:44.019Z,26.58
2023-03-06T20:03:10.799Z,22.27
2023-03-06T20:05:45.213Z,26.37
2023-03-06T20:08:12.125Z,26.35
2023-03-06T20:10:39.015Z,24.10
2023-03-06T20:13:05.982Z,26.27
2023-03-06T20:15:35.174Z,28.17
2023-03-06T20:18:02.264Z,26.23
2023-03-06T20:20:29.493Z,27.77
2023-03-06T20:22:56.435Z,26.70
2023-03-06T20:25:23.692Z,27.30
2023-03-06T20:27:52.681Z,28.48
2023-03-06T20:30:20.330Z,26.03
2023-03-06T20:32:47.239Z,24.13
2023-03-06T20:35:14.402Z,23.15
2023-03-06T20:37:41.435Z,24.00
2023-03-06T20:40:09.098Z,23.90
2023-03-06T20:42:35.927Z,24.57
2023-03-06T20:45:03.418Z,24.08
2023-03-06T20:47:30.806Z,24.85
2023-03-06T20:50:00.761Z,23.48
2023-03-06T20:52:27.628Z,28.67
2023-03-06T20:54:54.434Z,25.90
2023-03-06T20:57:21.356Z,27.40
2023-03-06T20:59:48.245Z,21.27
2023-03-06T21:02:15.298Z,23.77
2023-03-06T21:04:42.181Z,24.75
2023-03-06T21:07:09.203Z,22.80
2023-03-06T21:09:37.767Z,26.25
2023-03-06T21:12:05.134Z,26.20
2023-03-06T21:14:31.978Z,23.25
2023-03-06T21:16:59.212Z,22.95
2023-03-06T21:19:27.514Z,23.93
2023-03-06T21:21:54.480Z,18.80
2023-03-06T21:24:21.487Z,20.67
2023-03-06T21:26:48.483Z,21.42
2023-03-06T21:29:15.432Z,14.85
2023-03-06T21:31:42.295Z,13.60
2023-03-06T21:34:10.594Z,10.13
2023-03-06T21:36:37.547Z,11.10
2023-03-06T21:39:06.342Z,9.73
2023-03-06T21:41:37.784Z,8.18
2023-03-06T21:44:05.679Z,8.20
2023-03-06T21:46:33.561Z,7.05
2023-03-06T21:49:03.277Z,6.80
2023-03-06T21:51:30.338Z,7.32
2023-03-06T21:53:57.284Z,4.72
2023-03-06T21:56:28.219Z,6.93
2023-03-06T21:58:58.408Z,5.30
2023-03-06T22:01:27.376Z,7.25
2023-03-06T22:03:55.064Z,6.32
2023-03-06T22:06:25.097Z,6.40
2023-03-06T22:08:51.956Z,6.57
2023-03-06T22:11:21.187Z,7.15
2023-03-06T22:13:48.495Z,5.32
2023-03-06T22:16:15.941Z,5.70
2023-03-06T22:18:47.371Z,7.05
2023-03-06T22:21:16.081Z,6.17
2023-03-06T22:23:43.260Z,7.05
2023-03-06T22:26:12.778Z,4.22
2023-03-06T22:28:40.691Z,4.43
2023-03-06T22:31:11.938Z,4.63
2023-03-06T22:33:38.762Z,5.87
2023-03-06T22:36:08.496Z,6.10
2023-03-06T22:38:38.071Z,9.32
2023-03-06T22:41:05.849Z,5.72
2023-03-06T22:43:33.302Z,5.95
2023-03-06T22:46:05.096Z,6.67
2023-03-06T22:48:32.010Z,6.20
2023-03-06T22:51:25.343Z,5.57
2023-03-06T22:53:52.228Z,4.95
2023-03-06T22:56:21.457Z,6.00
2023-03-06T22:58:48.620Z,7.30
2023-03-06T23:01:21.108Z,10.20
2023-03-06T23:03:50.711Z,8.75
2023-03-06T23:06:18.982Z,9.00
2023-03-06T23:08:51.064Z,5.43
2023-03-06T23:11:19.766Z,9.93
2023-03-06T23:14:05.943Z,9.77
2023-03-06T23:16:51.524Z,9.00
2023-03-06T23:19:36.882Z,9.80
2023-03-06T23:22:22.655Z,6.82
2023-03-06T23:25:09.287Z,4.53
2023-03-06T23:27:36.346Z,6.82
2023-03-06T23:30:04.913Z,10.25
2023-03-06T23:32:33.612Z,7.60
2023-03-06T23:35:00.684Z,9.50
2023-03-06T23:37:27.523Z,7.93
2023-03-06T23:39:54.683Z,10.38
2023-03-06T23:42:22.640Z,8.35
2023-03-06T23:44:49.503Z,10.20
2023-03-06T23:47:17.290Z,6.40
2023-03-06T23:49:44.115Z,7.23
2023-03-06T23:52:10.892Z,5.97
2023-03-06T23:54:38.019Z,8.95
2023-03-06T23:57:04.971Z,6.32
2023-03-06T23:59:32.095Z,7.03
